Partenaires institutionnels


Sponsors

060/34.00.00
www.octaplus.be
info.mariembourg@octaplus.be
20:04:48 261 classés 10,000 km
POS DOS SEXE NOM CLUB TEMPS REEL VIT MOY CAT PL. PTS
1 92 MATTHIEU DEBOUCK DAMP - TRAKS 00:32:54 00:32:54 18,237 03:17 SEN H 1 1000
2 187 FRANÇOIS DUPONT CABW 00:33:57 00:33:57 17,673 03:24 SEN H 2 969
3 188 LUCAS POLLET 00:34:26 00:34:26 17,425 03:27 JUN H 1 955
4 175 SÉBASTIEN BOURGEOIS TRAKKS 00:35:09 00:35:09 17,070 03:31 SEN H 3 936
5 289 GROENNE ELIAN LA THURE 00:35:22 00:35:22 16,965 03:32 xH 1 930
6 101 NOAH HOCQUET ATHÉNÉE ROYAL CHIMAY 00:35:28 00:35:28 16,917 03:33 xH 2 928
7 145 RENAUD LEBLANC JACO-CCSTC 00:35:29 00:35:29 16,909 03:33 SEN H 4 927
8 303 BAU GEOFFROY GRAC 00:35:38 00:35:38 16,838 03:34 SEN H 5 923
9 177 BRAHIM OUBOUSKOUR CRAC 00:36:05 00:36:05 16,628 03:37 V1 1 912
10 317 MARLET CORENTIN 00:36:26 00:36:26 16,468 03:39 xH 3 903
11 117 REMY MILES KIN&SPORT 00:36:34 00:36:34 16,408 03:39 SEN H 6 900
12 309 LESOI MATHIAS ESM 00:36:35 00:36:35 16,401 03:40 SEN H 7 899
13 198 THIERRY FAVEAUX ARCH 00:36:36 00:36:36 16,393 03:40 V2 1 899
14 80 CHRISTOPHE BAIOLET ACCO 00:36:39 00:36:39 16,371 03:40 SEN H 8 898
15 308 PASQUE CEDRIC LES BOUFFIOLS 00:36:48 00:36:48 16,304 03:41 SEN H 9 894
16 160 FABRICE HASTIR TRAKKS/ARCH 00:36:55 00:36:55 16,253 03:42 V1 2 891
17 144 ERIC HARDY JAMESON 00:37:05 00:37:05 16,180 03:43 V2 2 887
18 276 EL KADERI AHMED CRAC 00:37:08 00:37:08 16,158 03:43 V1 3 886
19 76 OLIVIER PAQUET JACO 00:37:08 00:37:08 16,158 03:43 V1 4 886
20 231 RENARD YVES CTA 00:37:13 00:37:13 16,122 03:43 V2 3 884
21 148 MATTHIAS EVRATS SUPERBIKERS 00:37:25 00:37:25 16,036 03:45 SEN H 10 879
22 199 JEAN FRIPPIAT 00:37:29 00:37:29 16,007 03:45 SEN H 11 878
23 241 GOOSSENS JULIEN CHAMPIONS 00:37:34 00:37:34 15,972 03:45 SEN H 12 876
24 297 MOUREAU DAVID ESM 00:38:16 00:38:16 15,679 03:50 SEN H 13 860
25 251 VAN THUYNE AXEL ESM 00:38:17 00:38:17 15,673 03:50 SEN H 14 859
26 286 VANDENKERECHOVE OLIVIER MYRUN 00:38:37 00:38:37 15,537 03:52 SEN H 15 852
27 283 PENNE MARIO HOME SOLUTION 00:38:51 00:38:51 15,444 03:53 V1 5 847
28 170 NICOLAS DARAS GRAC GIVET 00:38:52 00:38:52 15,437 03:53 SEN H 16 846
29 172 F CATHERINE MARTENS CABW O2MAX 00:38:53 00:38:53 15,431 03:53 A1 1 846
30 14 DOMINIC THOMAS ACCO 00:38:59 00:38:59 15,391 03:54 V2 4 844
31 99 THOMAS TENAERTS JACCO 00:38:59 00:38:59 15,391 03:54 xH 4 844
32 338 HUENS ANTHONY 00:39:05 00:39:05 15,352 03:55 V1 6 842
33 200 BENOÎT BADOT JOG HERMETON 00:39:06 00:39:06 15,345 03:55 SEN H 17 841
34 46 PIERRE MORTIER ESM 00:39:20 00:39:20 15,254 03:56 V1 7 836
35 335 THONON GUILLAUME 00:39:37 00:39:37 15,145 03:58 SEN H 18 830
36 171 XAVIER LEBRUN O2MAX 00:40:22 00:40:22 14,864 04:02 SEN H 19 815
37 63 RÉMI VAN GHELUWE JACO 00:40:24 00:40:24 14,851 04:02 SEN H 20 814
38 294 BRUNEBARBE JOEL ESM 00:40:25 00:40:25 14,845 04:03 V1 8 814
39 33 BENOIT DELVALLÉE 00:40:38 00:40:38 14,766 04:04 SEN H 21 810
40 86 F ALINE ANDRIEU ACCO 00:40:40 00:40:40 14,754 04:04 SEN F 1 809
41 161 BENOÎT POUCET JACO 00:40:41 00:40:41 14,748 04:04 V2 5 809
42 130 PIERRE RIVEZ ACTE 00:40:49 00:40:49 14,700 04:05 V2 6 806
43 339 LECLAIR LAURENT GRAC 00:40:55 00:40:55 14,664 04:06 V2 7 804
44 266 F MARION JESSICA USBW 00:40:58 00:40:58 14,646 04:06 SEN F 2 803
45 230 DARDENNE NICOLAS JACO 00:41:08 00:41:08 14,587 04:07 SEN H 22 800
46 270 FALIZE EMILE ESM 00:41:11 00:41:11 14,569 04:07 V1 9 799
47 69 GAËTAN LECLERCQ AC FRONTIÈRES 00:41:29 00:41:29 14,464 04:09 SEN H 23 793
48 53 BLAISE DE PESTEL VAULX 00:41:38 00:41:38 14,412 04:10 SEN H 24 790
49 304 MARTIN LIONNEL ROUVOY SPORTS NATURE 00:41:51 00:41:51 14,337 04:11 SEN H 25 786
50 278 DEHAYE FRANCOIS JACO 00:42:13 00:42:13 14,212 04:13 SEN H 26 779
51 291 DELERS CLEMENT 00:42:23 00:42:23 14,156 04:14 SEN H 27 776
52 285 GUIOT FABRICE LA THURE 00:42:35 00:42:35 14,090 04:16 V1 10 773
53 29 GEOFFREY BAULOYE TRAILER DES FAGNES 00:42:37 00:42:37 14,079 04:16 SEN H 28 772
54 284 MEUNIER WILFRIED 00:42:39 00:42:39 14,068 04:16 SEN H 29 771
55 261 F LECAT NATHALIE 00:42:42 00:42:42 14,051 04:16 A1 2 770
56 312 LEBLAN CHRISOTPHE RSN 00:42:49 00:42:49 14,013 04:17 SEN H 30 768
57 313 MAUDOUX LIONEL JACO 00:43:12 00:43:12 13,889 04:19 SEN H 31 762
58 129 LAURENT FICHET JACO 00:43:17 00:43:17 13,862 04:20 V1 11 760
59 190 FRÉDÉRIC NUYTTEN ACCO 00:43:21 00:43:21 13,841 04:20 V1 12 759
60 133 GEORGES DIEUDONNÉ 00:43:46 00:43:46 13,709 04:23 SEN H 32 752
61 194 ANTOINE DUJARDIN ROCROY SPORTS NATURE 00:43:46 00:43:46 13,709 04:23 JUN H 2 752
62 11 FABRICE POUCET ACCO 00:43:51 00:43:51 13,683 04:23 SEN H 33 750
63 290 BROUSMICHE SIMON ES MOMINOISE 00:43:59 00:43:59 13,641 04:24 SEN H 34 748
64 235 BASTIEN PIERRE JACO 00:43:59 00:43:59 13,641 04:24 SEN H 35 748
65 296 CANCELLI PACCO RSN 00:44:15 00:44:15 13,559 04:26 xH 5 744
66 277 LAMBERT CHRISTOPHE 00:44:21 00:44:21 13,529 04:26 SEN H 36 742
67 238 TABARY GOERIC 00:44:21 00:44:21 13,529 04:26 SEN H 37 742
68 10 F CHEILA OLIX ARCH 00:44:23 00:44:23 13,519 04:26 A2 1 741
69 127 MICHAEL BOREUX 00:44:23 00:44:23 13,519 04:26 V1 13 741
70 60 ALAIN CORDEWENER ACFRONTIERES 00:44:27 00:44:27 13,498 04:27 V2 8 740
71 321 GATELIER BRICE SIVRY 00:44:29 00:44:29 13,488 04:27 JUN H 3 740
72 299 TORLET PIERRE JACO 00:44:29 00:44:29 13,488 04:27 SEN H 38 740
73 146 CHRISTOPHE BOMBLED CERFONTAINE 00:44:33 00:44:33 13,468 04:27 V1 14 738
74 322 NAVEZ TOM 00:44:33 00:44:33 13,468 04:27 JUN H 4 738
75 316 SOBRY CLAUDE JACO 00:44:35 00:44:35 13,458 04:28 V2 9 738
76 311 MATHIEU JEAN FRANCOIS CABW PHILIPPEVILLE 00:44:37 00:44:37 13,448 04:28 V1 15 737
77 39 PHILIPPE LEJEUNE LEJEUNE JACO 00:44:40 00:44:40 13,433 04:28 V2 10 737
78 132 NICOLAS RIVEZ UAC 00:44:45 00:44:45 13,408 04:29 SEN H 39 735
79 59 PASCAL GOFFIN 00:44:49 00:44:49 13,388 04:29 V2 11 734
80 337 BOURDON REMY VIROQUOIS 00:45:02 00:45:02 13,323 04:30 V1 16 731
81 168 PHILIPPE DEVILLE J.T.R.R. 00:45:11 00:45:11 13,279 04:31 V3 1 728
82 1 JOSE PONCELET A C FRONTIERES 00:45:18 00:45:18 13,245 04:32 V4 1 726
83 302 DECLERCQ GUY 00:45:35 00:45:35 13,163 04:34 V2 12 722
84 204 CHRISTOPHE ALARDAIN 00:45:44 00:45:44 13,120 04:34 SEN H 40 719
85 347 KENNIS THOMAS 00:45:48 00:45:48 13,100 04:35 SEN H 41 718
86 58 LAURENT LABILLOY AC FRONTIERE 00:45:52 00:45:52 13,081 04:35 V2 13 717
87 124 LUC MARCHAL 00:45:55 00:45:55 13,067 04:36 V2 14 717
88 301 COENNE MARC JACO 00:46:01 00:46:01 13,039 04:36 V2 15 715
89 61 JEAN-MARC REICHLING JTRR 00:46:04 00:46:04 13,025 04:36 V2 16 714
90 54 HERVÉ DE PESTEL VAULX 00:46:05 00:46:05 13,020 04:37 V2 17 714
91 334 CABARAUX MIGUEL VTT OIGNIES 00:46:05 00:46:05 13,020 04:37 V1 17 714
92 2 SERGE AUBERT CHUDONDORGANES 00:46:06 00:46:06 13,015 04:37 V3 2 714
93 119 KEVIN DE MEY KIN&SPORT 00:46:14 00:46:14 12,978 04:37 SEN H 42 712
94 260 F LESCEUX JOSÉ 00:46:14 00:46:14 12,978 04:37 A2 2 712
95 103 LÉO POUCET ATHÉNÉE ROYAL CHIMAY 00:46:16 00:46:16 12,968 04:38 JUN H 5 711
96 315 F LEGRAND SYLVIANE JACO 00:46:17 00:46:17 12,964 04:38 A3 1 711
97 280 BAILLY KARL JACO 00:46:20 00:46:20 12,950 04:38 V1 18 710
98 105 CLÉMENT VAN DE VELDE ATHÉNÉE ROYAL CHIMAY 00:46:21 00:46:21 12,945 04:38 JUN H 6 710
99 202 SEBASTIEN CHARRIERE GRAC REVIN 00:46:28 00:46:28 12,912 04:39 SEN H 43 708
100 197 KEVIN BRAIBANT ORS 00:46:46 00:46:46 12,830 04:41 SEN H 44 703
101 62 F ODILE PARAGE JTRR 00:46:47 00:46:47 12,825 04:41 A1 3 703
102 41 PAUL THOMAS BARRIÈRE 00:46:48 00:46:48 12,821 04:41 V2 18 703
103 232 F NAVEAU CELINE JACO 00:46:56 00:46:56 12,784 04:42 A1 4 701
104 265 DEMONTÉ FABIAN 00:46:59 00:46:59 12,770 04:42 SEN H 45 700
105 233 MAHY JEAN LUC JACO 00:46:59 00:46:59 12,770 04:42 V1 19 700
106 250 F BENBETE TATIANE JACO 00:47:00 00:47:00 12,766 04:42 A1 5 700
107 154 JONATHAN BOUSSIFET 00:47:03 00:47:03 12,752 04:42 SEN H 46 699
108 247 JUNEMANN YORIC BAUDET 00:47:05 00:47:05 12,743 04:43 V1 20 699
109 180 SAMUEL DUROT ROCROY SPORTS NATURE 00:47:14 00:47:14 12,703 04:43 V1 21 697
110 319 VERMASSEN MARCEL ESM 00:47:15 00:47:15 12,698 04:44 V2 19 696
111 24 JACKY PARISELLE JTRR 00:47:34 00:47:34 12,614 04:45 V3 3 692
112 336 BERNARD STEPHANE VIROQUOIS 00:47:36 00:47:36 12,605 04:46 SEN H 47 691
113 89 ANDRE VAN RENTERGHEM JOG HERMETON 00:47:53 00:47:53 12,530 04:47 V3 4 687
114 340 GILSON BAPTISTE KINÉ SPORT 00:47:53 00:47:53 12,530 04:47 SEN H 48 687
115 137 YOHAN DAPARE 00:47:54 00:47:54 12,526 04:47 V1 22 687
116 181 JOACHIM PILLON ROCROY SPORTS NATURE 00:47:54 00:47:54 12,526 04:47 SEN H 49 687
117 37 F MARIE-CHRISTINE FOULON CRAZY BIKERS 00:47:56 00:47:56 12,517 04:48 A3 2 686
118 178 F LAURA SCIEUR ACCO 00:48:09 00:48:09 12,461 04:49 SEN F 3 683
119 38 FLORENT LABILLOY AC FRONTIERE 00:48:12 00:48:12 12,448 04:49 SEN H 50 683
120 255 CORDEWENER JOEL AC FRONTIERES 00:48:12 00:48:12 12,448 04:49 V1 23 683
121 98 ELVIS LEGRAND ASPTT CHARLEVILLE 00:48:13 00:48:13 12,444 04:49 SEN H 51 682
122 114 HUGO PIGNON KIN&SPORT 00:48:21 00:48:21 12,410 04:50 xH 6 680
123 13 MICHEL REGNIER JTRR PETIGNY 00:48:42 00:48:42 12,320 04:52 V2 20 676
124 329 GIOVANNANGELO ALAIN ESM 00:48:49 00:48:49 12,291 04:53 V3 5 674
125 318 MAGIS BERNARD ESM COUVIN 00:48:49 00:48:49 12,291 04:53 V4 2 674
126 262 TASSIN QUENTIN JOG HERMETON 00:48:50 00:48:50 12,287 04:53 SEN H 52 674
127 152 ROMAN COOREN JTRR 00:48:51 00:48:51 12,282 04:53 V1 24 673
128 256 CORDEWENER MATHIEU AC FRONTIERES 00:49:05 00:49:05 12,224 04:55 SEN H 53 670
129 185 THIBAUT SERVAIS TRAILERS DES FAGNES 00:49:09 00:49:09 12,208 04:55 SEN H 54 669
130 42 FABRICE BOTTEAUX 00:49:10 00:49:10 12,203 04:55 SEN H 55 669
131 254 CAUDRON ESTEBAN 00:49:11 00:49:11 12,199 04:55 SEN H 56 669
132 263 DEFOSSE ANTOINE JOG HERMETON 00:49:17 00:49:17 12,174 04:56 SEN H 57 668
133 244 XHEMALAS ENEO TOUS A BORD 00:49:20 00:49:20 12,162 04:56 SEN H 58 667
134 169 THIBAUD SIBILLE ACCO 00:49:27 00:49:27 12,133 04:57 SEN H 59 665
135 279 NICOLAS LOIC 00:49:30 00:49:30 12,121 04:57 SEN H 60 665
136 120 GILLES PETITJEAN KIN&SPORT 00:49:34 00:49:34 12,105 04:57 SEN H 61 664
137 228 DE WULF LUC ESM 00:49:36 00:49:36 12,097 04:58 V3 6 663
138 325 BINET ALAN 00:49:37 00:49:37 12,093 04:58 xH 7 663
139 300 F NAVEAU EMILIE 00:49:40 00:49:40 12,080 04:58 SEN F 4 662
140 12 BERNARD POUCET JTRR 00:49:49 00:49:49 12,044 04:59 SEN H 62 660
141 65 F MURIEL D HULSTER JACO 00:49:53 00:49:53 12,028 04:59 A3 3 660
142 184 MATHIEU FORTEMPS TRAILERS DES FAGNES 00:49:54 00:49:54 12,024 04:59 SEN H 63 659
143 307 F DELITTE BENEDICTE ESM 00:49:55 00:49:55 12,020 05:00 A2 3 659
144 19 F SIGRID DERRE 00:49:58 00:49:58 12,008 05:00 A1 6 658
145 227 GERMY PASCAL ESM 00:49:58 00:49:58 12,008 05:00 V1 25 658
146 348 SAVE CHRISTOPHE 00:50:09 00:50:09 11,964 05:01 V1 26 656
147 104 JULES POUCET ATHÉNÉE ROYAL CHIMAY 00:50:11 00:50:11 11,956 05:01 JUN H 7 656
148 343 CLESSE SYLVAIN 00:50:17 00:50:17 11,932 05:02 xH 8 654
149 344 MALVOISIN LIONEL GIVET 00:50:21 00:50:21 11,917 05:02 SEN H 64 653
150 288 LAHM PHILIPPE JTRR 00:50:29 00:50:29 11,885 05:03 V1 27 652
151 135 PASCAL DETRE JCPMF CHIMAY 00:50:33 00:50:33 11,869 05:03 V2 21 651
152 150 PIERRE-DAMIEN MANON GRAC 00:50:33 00:50:33 11,869 05:03 SEN H 65 651
153 342 DURSIN LOGAN 00:50:40 00:50:40 11,842 05:04 SEN H 66 649
154 237 DORCIMONT CHANTAL ESM 00:50:56 00:50:56 11,780 05:06 V1 28 646
155 179 CYRIL PILLON ROCROY SPORTS NATURE 00:50:57 00:50:57 11,776 05:06 V1 29 646
156 236 MANDERLIER ERIC ESM 00:50:57 00:50:57 11,776 05:06 V2 22 646
157 74 THIERRY HOUZE JTRR 00:51:22 00:51:22 11,681 05:08 V1 30 640
158 167 ERIC GALLOIS 00:51:22 00:51:22 11,681 05:08 V1 31 640
159 346 SOKAY MICHELLE LA THURE 00:51:30 00:51:30 11,650 05:09 V3 7 639
160 192 F STÉPHANIE CUVELIER ACCO 00:51:33 00:51:33 11,639 05:09 A1 7 638
161 18 JOHNNY LEDOUX ROCROY SPORTS NATURE 00:51:37 00:51:37 11,624 05:10 V1 32 637
162 186 FLORENT MAQUART 00:51:39 00:51:39 11,617 05:10 V1 33 637
163 239 FIORITO ANTONIO JACO 00:51:42 00:51:42 11,605 05:10 V3 8 636
164 31 F STÉPHANIE CAPITAINE JTRR 00:51:46 00:51:46 11,590 05:11 A1 8 636
165 327 LECLAIT THIBAULT 00:52:00 00:52:00 11,538 05:12 SEN H 67 633
166 102 CLÉMENT PELTRE ATHÉNÉE ROYAL CHIMAY 00:52:12 00:52:12 11,494 05:13 JUN H 8 630
167 264 CAMPS NATHANIEL JOG HERMETON 00:52:23 00:52:23 11,454 05:14 SEN H 68 628
168 163 VIVIAN CROWET 00:52:27 00:52:27 11,439 05:15 SEN H 69 627
169 50 SERGE TONDA JACO 00:52:34 00:52:34 11,414 05:15 V4 3 626
170 258 F DEGELAN BEATRICE GERPINNES&CO 00:52:37 00:52:37 11,403 05:16 A1 9 625
171 257 TSCHIRR GEORGES GERPINNES&CO 00:52:37 00:52:37 11,403 05:16 V3 9 625
172 26 F GOMES NATHALIE GOMES ROCROI SPORT NATURE 00:52:38 00:52:38 11,400 05:16 A2 4 625
173 121 F MÉLISSA DOCQUIER 00:52:43 00:52:43 11,382 05:16 SEN F 5 624
174 147 LUC LEROY ZONARDS THUIN/LOBBES 00:52:45 00:52:45 11,374 05:17 V2 23 624
175 240 NICOLAS LOUIS 00:52:50 00:52:50 11,356 05:17 xH 9 623
176 115 DORIAN TORDEUR KIN&SPORT 00:53:00 00:53:00 11,321 05:18 xH 10 621
177 252 F DELCINE CORALIE JCPMF CHIMAY 00:53:20 00:53:20 11,250 05:20 SEN F 6 617
178 349 BAUDAUX FRANCIS JCPMF COUVIN 00:53:23 00:53:23 11,239 05:20 V2 24 616
179 118 FABRICE VYNCKIER KIN&SPORT 00:53:30 00:53:30 11,215 05:21 V1 34 615
180 320 DUBUC RENAUD 00:53:44 00:53:44 11,166 05:22 SEN H 70 612
181 259 NICOLAS FREDERIK JTRR 00:53:46 00:53:46 11,159 05:23 SEN H 71 612
182 109 LOUIS NIZET KIN&SPORT 00:53:56 00:53:56 11,125 05:24 xH 11 610
183 341 CHANTEUX ANTOINE KINÉ SPORT 00:54:08 00:54:08 11,084 05:25 SEN H 72 608
184 253 F DONNER CHRISTIANE JCPMF 00:54:12 00:54:12 11,070 05:25 A1 10 607
185 162 VALÉRY CROWET 00:54:16 00:54:16 11,057 05:26 SEN H 73 606
186 246 F JIMENEZ RAQUEL TOUS A BORD 00:54:19 00:54:19 11,046 05:26 SEN F 7 606
187 326 F DUROT AMANDINE 00:54:24 00:54:24 11,029 05:26 JUN F 1 605
188 249 F DESTRES INGRID JACO 00:54:43 00:54:43 10,966 05:28 A1 11 601
189 111 COLIN SPELEERS KIN&SPORT 00:55:14 00:55:14 10,863 05:31 xH 12 596
190 153 F AURELIE COLLIN 00:55:17 00:55:17 10,853 05:32 SEN F 8 595
191 229 F TINTON VINCIANE 00:55:20 00:55:20 10,843 05:32 A2 5 595
192 35 VINCENT DENAYER LA THURE 00:55:22 00:55:22 10,837 05:32 V2 25 594
193 295 ROUSSEAU OLIVIER ESM 00:55:22 00:55:22 10,837 05:32 V1 35 594
194 287 DUBUC LAURENT 00:55:25 00:55:25 10,827 05:33 SEN H 74 594
195 94 VALENTIN DELFORGE 00:55:26 00:55:26 10,824 05:33 SEN H 75 594
196 155 F CELINE DETAILLE 00:55:28 00:55:28 10,817 05:33 A1 12 593
197 95 VINCENT SEPTON 00:55:29 00:55:29 10,814 05:33 SEN H 76 593
198 224 F PRAGER MARINE 00:55:51 00:55:51 10,743 05:35 JUN F 2 589
199 113 ARTHUR RICHE KIN&SPORT 00:55:52 00:55:52 10,740 05:35 xH 13 589
200 332 SOBRY PHILIPPE JCPMF 00:55:52 00:55:52 10,740 05:35 V2 26 589
201 112 REMY RORIVE KIN&SPORT 00:55:53 00:55:53 10,737 05:35 xH 14 589
202 97 PIERRE BILLOT BPC 00:55:55 00:55:55 10,730 05:36 V1 36 588
203 138 F MARIE LESCEUX 00:55:58 00:55:58 10,721 05:36 A1 13 588
204 242 F ADAN CHARLOTTE OTC 00:56:00 00:56:00 10,714 05:36 SEN F 9 587
205 267 MARION JEAN LUC 00:56:06 00:56:06 10,695 05:37 V2 27 586
206 156 F CAROLINE HAUCHART 00:56:10 00:56:10 10,682 05:37 SEN F 10 586
207 310 F HAET SABRINA 00:56:24 00:56:24 10,638 05:38 SEN F 11 583
208 78 F CATHERINE WIAME 00:56:30 00:56:30 10,619 05:39 A1 14 582
209 100 F PASCALE GANY ATHÉNÉE ROYAL CHIMAY 00:56:46 00:56:46 10,570 05:41 A2 6 580
210 125 THIERRY DELAHAUT JACO 00:56:59 00:56:59 10,529 05:42 V1 37 577
211 128 BENOIT DUMONT 00:57:08 00:57:08 10,502 05:43 V1 38 576
212 330 DENIS CHRISTIANE ESM ZONARDS 00:57:14 00:57:14 10,483 05:43 V3 10 575
213 331 F THIRION FANFAN ESM ZONARDS 00:57:14 00:57:14 10,483 05:43 A3 4 575
214 66 F LUDIVINE LOBET GRANNY ET SES POMMES 00:57:17 00:57:17 10,474 05:44 SEN F 12 574
215 68 F BRIGITTE VANDENHAUTE AC FRONTIÈRES 00:57:36 00:57:36 10,417 05:46 A2 7 571
216 84 F VALÉRIE YERNAUX JTRR 00:57:41 00:57:41 10,402 05:46 A1 15 570
217 195 JULIEN HOSSELET 00:58:26 00:58:26 10,268 05:51 SEN H 77 563
218 281 BINET STEPHANE 00:58:48 00:58:48 10,204 05:53 SEN H 78 560
219 305 F BUJON DOMINIQUE 00:58:55 00:58:55 10,184 05:54 A2 8 558
220 306 F ALVES PIEDADE 00:58:55 00:58:55 10,184 05:54 A2 9 558
221 70 BRUNO BELLENGER JTRR 00:59:20 00:59:20 10,112 05:56 V1 39 554
222 149 F SABRINA MANON GRAC 00:59:27 00:59:27 10,093 05:57 SEN F 13 553
223 275 CAPITAINE JULIEN 00:59:36 00:59:36 10,067 05:58 SEN H 79 552
224 245 F MARTIN MARIE-FRANCE 01:00:00 01:00:00 10,000 06:00 A2 10 548
225 108 ORRY VAN EYCKEN ATHÉNÉE ROYAL JEAN REY SEC. 01:00:06 01:00:06 9,983 06:01 xH 15 547
226 64 F CHANTAL CORDEWENER AC FRONTIÈRES 01:00:07 01:00:07 9,981 06:01 A2 11 547
227 164 VINCENT CROWET 01:00:09 01:00:09 9,975 06:01 SEN H 80 547
228 17 F ELODIE KELLER SANS 01:00:13 01:00:13 9,964 06:01 A1 16 546
229 203 F AURELIE GRAMBRAS 01:00:22 01:00:22 9,939 06:02 SEN F 14 545
230 34 F CORINNE DEMAIN LA THURE 01:00:28 01:00:28 9,923 06:03 A2 12 544
231 273 GILLES PASCAL JTRR 01:00:28 01:00:28 9,923 06:03 V2 28 544
232 110 CLEMENT BERLEMONT KIN&SPORT 01:00:46 01:00:46 9,874 06:05 xH 16 541
233 75 F ESTHER HAUTENNE JOG HERMETON 01:01:02 01:01:02 9,831 06:06 A2 13 539
234 298 GOBILLON THIBAUT 01:01:05 01:01:05 9,823 06:07 xH 17 539
235 274 F MICHAUX FRANCOISE JTRR 01:01:24 01:01:24 9,772 06:08 A2 14 536
236 293 F LELIEVRE DAMIT ANNE 01:02:05 01:02:05 9,664 06:13 SEN F 15 530
237 292 LELIEVRE DAMIT ERIK SHARKS 01:02:05 01:02:05 9,664 06:13 V2 29 530
238 165 F SOPHIE TOUCHON 01:02:18 01:02:18 9,631 06:14 SEN F 16 528
239 139 F NICOLE LOUSBERG 01:02:26 01:02:26 9,610 06:15 A2 15 527
240 141 F JULIE BLAVIER 01:02:26 01:02:26 9,610 06:15 SEN F 17 527
241 176 F AURORE FONCK 01:02:52 01:02:52 9,544 06:17 SEN F 18 523
242 182 F MARIE-AGNÈS MAHY 01:02:56 01:02:56 9,534 06:18 A1 17 523
243 282 F COLLART ANNE 01:03:03 01:03:03 9,516 06:18 A1 18 522
244 183 F HELENE MALENGRET 01:03:15 01:03:15 9,486 06:20 A1 19 520
245 96 F RUBY MUSARDO 01:03:18 01:03:18 9,479 06:20 SEN F 19 520
246 4 F VÉRONIQUE HUMBLED CPMV 01:03:26 01:03:26 9,459 06:21 A2 16 519
247 208 F FABIENNE MARCELLE JACO 01:03:40 01:03:40 9,424 06:22 A2 17 517
248 324 F CERINI CARLA ESM 01:03:59 01:03:59 9,377 06:24 A2 18 514
249 32 F ALICE DE SLOOVER JTRR 01:04:37 01:04:37 9,286 06:28 A1 20 509
250 140 CHRISTOPHE GOBILLON 01:04:41 01:04:41 9,276 06:28 SEN H 81 509
251 87 F SABINE MASSON KIN&SPORT 01:06:05 01:06:05 9,079 06:37 A2 19 498
252 209 F AXELLE BUSIGNY JACO 01:06:35 01:06:35 9,011 06:40 A1 21 494
253 85 F DELPHINE PAQUET JTRR 01:07:01 01:07:01 8,953 06:42 SEN F 20 491
254 328 F DOBBELAERE JULIA ESM 01:07:21 01:07:21 8,909 06:44 A4 1 488
255 47 ERIC DUCOEUR JTRR - JACO 01:08:27 01:08:27 8,766 06:51 V1 40 481
256 268 F BRIQUET GERALDINE ESM 01:10:57 01:10:57 8,457 07:06 A1 22 464
257 272 F LEPAGE HELENE ESM 01:10:58 01:10:58 8,455 07:06 A1 23 464
258 271 DUPONT SVEN ESM 01:10:58 01:10:58 8,455 07:06 V1 41 464
259 269 F DELHAYE CORALIE ESM 01:10:58 01:10:58 8,455 07:06 A2 20 464
260 9 SÉBASTIEN NICOLAS JACO 01:20:23 01:20:23 7,464 08:02 SEN H 82 409
261 52 JONATHAN BAILLY ACCO 01:20:29 01:20:29 7,455 08:03 SEN H 83 409